Time;durP1;ratioP1;P1;durP2;ratioP2;P2;SDS_P1;SDS_P2;PMS_P1;PMS_P2;Temp;Humidity;BMP_temperature;BMP_pressure;BME280_temperature;BME280_humidity;BME280_pressure;Samples;Min_cycle;Max_cycle;Signal;HPM_P1;HPM_P2
2021/04/24 00:00:31;;;;;;;7.83;4.72;;;;;;;4.48;61.49;100474.45;1806858;79;21198;-53
2021/04/24 00:02:58;;;;;;;7.20;4.65;;;;;;;4.44;61.73;100473.26;1806858;79;21057;-53
2021/04/24 00:05:31;;;;;;;7.33;4.78;;;;;;;4.41;61.90;100479.16;1806940;79;20958;-53
2021/04/24 00:08:00;;;;;;;6.83;4.87;;;;;;;4.38;62.01;100479.62;1805904;79;21018;-53
2021/04/24 00:10:29;;;;;;;6.42;4.45;;;;;;;4.35;62.26;100477.37;1806992;79;21599;-53
2021/04/24 00:12:59;;;;;;;7.62;4.53;;;;;;;4.33;62.47;100468.63;1807060;79;21240;-53
2021/04/24 00:15:26;;;;;;;7.58;4.95;;;;;;;4.32;62.66;100474.58;1806864;79;20986;-53
2021/04/24 00:17:53;;;;;;;5.60;4.58;;;;;;;4.31;62.91;100480.25;1806970;79;20986;-53
2021/04/24 00:20:23;;;;;;;6.92;4.40;;;;;;;4.27;63.18;100473.10;1806661;79;21010;-53
2021/04/24 00:22:52;;;;;;;8.23;4.33;;;;;;;4.26;63.55;100474.70;1806913;79;21026;-53
2021/04/24 00:25:20;;;;;;;9.20;4.03;;;;;;;4.25;63.65;100474.39;1807048;79;21208;-53
2021/04/24 00:27:47;;;;;;;7.05;4.80;;;;;;;4.24;63.87;100479.52;1806811;79;21632;-53
2021/04/24 00:30:17;;;;;;;7.70;4.72;;;;;;;4.20;64.09;100481.03;1806854;79;20986;-53
2021/04/24 00:32:45;;;;;;;9.05;5.65;;;;;;;4.18;64.24;100486.70;1806860;79;21532;-53
2021/04/24 00:35:14;;;;;;;7.12;5.30;;;;;;;4.17;64.41;100482.86;1807104;79;22039;-53
2021/04/24 00:37:42;;;;;;;6.42;4.95;;;;;;;4.15;64.50;100482.55;1807015;79;21571;-53
2021/04/24 00:40:11;;;;;;;7.62;4.83;;;;;;;4.12;64.81;100482.19;1806821;79;21002;-53
2021/04/24 00:42:39;;;;;;;5.85;4.42;;;;;;;4.12;65.08;100485.73;1806992;79;21302;-53
2021/04/24 00:45:10;;;;;;;6.87;4.55;;;;;;;4.11;65.25;100480.52;1806855;79;21031;-53
2021/04/24 00:47:38;;;;;;;7.83;4.90;;;;;;;4.08;65.62;100480.45;1807072;79;21580;-53
2021/04/24 00:50:08;;;;;;;9.05;5.20;;;;;;;4.02;65.89;100484.09;1806909;79;21193;-53
2021/04/24 00:52:36;;;;;;;10.48;5.47;;;;;;;3.98;66.26;100482.88;1812272;79;21077;-53
2021/04/24 00:55:05;;;;;;;8.05;5.30;;;;;;;3.93;66.44;100484.08;1815425;79;21029;-52
2021/04/24 00:57:33;;;;;;;6.42;4.62;;;;;;;3.91;66.69;100482.95;1815553;78;21588;-53
2021/04/24 01:00:00;;;;;;;6.53;4.90;;;;;;;3.91;66.92;100478.06;1815533;79;21604;-53
2021/04/24 01:02:29;;;;;;;6.35;4.65;;;;;;;3.89;67.05;100481.01;1815407;78;21192;-53
2021/04/24 01:04:56;;;;;;;6.62;4.45;;;;;;;3.91;67.32;100476.70;1815310;79;21303;-53
2021/04/24 01:07:23;;;;;;;6.75;4.97;;;;;;;3.92;67.29;100475.66;1815353;78;21018;-54
2021/04/24 01:09:50;;;;;;;9.03;4.05;;;;;;;3.95;67.31;100467.03;1815306;79;21045;-53
2021/04/24 01:12:18;;;;;;;8.93;5.33;;;;;;;3.97;67.25;100486.65;1815416;78;21053;-53
2021/04/24 01:14:46;;;;;;;6.62;4.87;;;;;;;3.96;67.43;100474.14;1815387;79;21382;-53
2021/04/24 01:17:13;;;;;;;6.97;4.45;;;;;;;3.94;67.57;100472.16;1815407;79;20990;-53
2021/04/24 01:19:41;;;;;;;8.85;4.90;;;;;;;3.92;67.67;100485.16;1815419;78;20978;-53
2021/04/24 01:22:09;;;;;;;7.25;5.08;;;;;;;3.88;67.77;100477.16;1815257;79;21068;-53
2021/04/24 01:24:37;;;;;;;11.90;5.35;;;;;;;3.84;67.76;100467.80;1815534;79;21045;-54
2021/04/24 01:27:06;;;;;;;14.78;5.78;;;;;;;3.82;67.77;100471.29;1815580;79;21684;-53
2021/04/24 01:29:36;;;;;;;7.17;4.58;;;;;;;3.77;67.92;100474.16;1815305;79;21018;-53
2021/04/24 01:32:05;;;;;;;6.95;4.47;;;;;;;3.73;67.86;100470.23;1815560;79;20986;-53
2021/04/24 01:34:33;;;;;;;9.23;4.80;;;;;;;3.70;67.97;100465.77;1815265;79;21049;-53
2021/04/24 01:37:01;;;;;;;6.42;4.92;;;;;;;3.66;68.00;100472.19;1815488;79;20966;-53
2021/04/24 01:39:29;;;;;;;8.35;4.85;;;;;;;3.62;68.27;100473.16;1815348;79;21210;-53
2021/04/24 01:41:57;;;;;;;7.40;5.00;;;;;;;3.59;68.43;100472.80;1815390;79;20966;-53
2021/04/24 01:44:24;;;;;;;8.33;5.00;;;;;;;3.56;68.70;100470.53;1815362;79;20999;-53
2021/04/24 01:46:53;;;;;;;7.45;4.28;;;;;;;3.52;68.85;100476.11;1815240;79;21037;-53
2021/04/24 01:49:21;;;;;;;8.55;5.20;;;;;;;3.47;69.15;100471.33;1815516;78;21033;-53
2021/04/24 01:51:48;;;;;;;9.75;5.85;;;;;;;3.44;69.54;100474.51;1813434;78;21380;-53
2021/04/24 01:54:16;;;;;;;11.85;5.33;;;;;;;3.37;69.92;100475.10;1806761;79;21603;-53
2021/04/24 01:56:52;;;;;;;9.33;4.97;;;;;;;3.35;70.11;100477.22;1806736;79;20979;-54
2021/04/24 01:59:22;;;;;;;8.20;5.47;;;;;;;3.32;70.28;100477.14;1806935;79;21046;-54
2021/04/24 02:01:52;;;;;;;11.63;6.53;;;;;;;3.29;70.34;100468.91;1806836;79;21437;-54
2021/04/24 02:04:21;;;;;;;7.58;5.20;;;;;;;3.28;70.51;100476.74;1806749;79;21370;-54
2021/04/24 02:06:49;;;;;;;11.15;5.58;;;;;;;3.29;70.72;100472.98;1806823;79;21033;-54
2021/04/24 02:09:18;;;;;;;9.05;5.05;;;;;;;3.29;70.91;100472.16;1806923;79;21022;-54
2021/04/24 02:12:11;;;;;;;7.00;5.20;;;;;;;3.25;71.04;100470.95;1806448;79;21026;-54
2021/04/24 02:14:47;;;;;;;8.40;5.65;;;;;;;3.22;71.24;100477.65;1807014;79;21749;-54
2021/04/24 02:17:24;;;;;;;7.55;5.53;;;;;;;3.20;71.40;100476.20;1807212;79;21138;-54
2021/04/24 02:19:53;;;;;;;6.67;4.67;;;;;;;3.17;71.84;100482.08;1806920;79;21037;-54
2021/04/24 02:22:21;;;;;;;7.37;5.30;;;;;;;3.16;71.96;100478.55;1806952;79;21607;-54
2021/04/24 02:24:57;;;;;;;7.05;5.42;;;;;;;3.16;72.08;100487.20;1806567;79;21034;-54
2021/04/24 02:27:25;;;;;;;10.43;5.95;;;;;;;3.12;72.16;100481.40;1807187;79;21587;-54
2021/04/24 02:29:56;;;;;;;6.90;5.20;;;;;;;3.10;72.22;100474.84;1784501;79;21214;-54
2021/04/24 02:32:28;;;;;;;8.98;5.45;;;;;;;3.08;72.42;100480.19;1807017;79;21717;-54
2021/04/24 02:34:56;;;;;;;7.50;5.95;;;;;;;3.07;72.56;100477.16;1806831;79;21003;-54
2021/04/24 02:37:24;;;;;;;7.90;5.40;;;;;;;3.06;72.66;100474.98;1806795;79;21041;-54
2021/04/24 02:39:52;;;;;;;8.78;5.28;;;;;;;3.08;72.76;100478.83;1806789;79;21050;-54
2021/04/24 02:42:24;;;;;;;8.10;5.47;;;;;;;3.06;72.84;100483.12;1807053;79;21595;-54
2021/04/24 02:44:53;;;;;;;10.55;5.25;;;;;;;3.08;72.88;100483.72;1806833;79;21026;-54
2021/04/24 02:47:21;;;;;;;8.78;5.70;;;;;;;3.07;72.97;100483.44;1806843;79;21164;-54
2021/04/24 02:49:51;;;;;;;8.73;5.45;;;;;;;3.09;73.03;100486.74;1806790;79;21041;-54
2021/04/24 02:52:18;;;;;;;7.08;5.42;;;;;;;3.13;72.98;100489.01;1806718;79;21057;-54
2021/04/24 02:54:46;;;;;;;8.20;5.58;;;;;;;3.15;72.99;100489.63;1806735;79;21210;-54
2021/04/24 02:57:13;;;;;;;9.30;5.25;;;;;;;3.17;72.99;100482.08;1807044;79;21002;-54
2021/04/24 02:59:40;;;;;;;8.18;4.90;;;;;;;3.18;73.01;100484.58;1806918;79;20966;-54
2021/04/24 03:02:08;;;;;;;9.25;4.85;;;;;;;3.19;73.08;100496.28;1806983;79;21034;-54
2021/04/24 03:04:36;;;;;;;7.28;4.95;;;;;;;3.20;73.08;100497.92;1806790;79;21017;-54
2021/04/24 03:07:04;;;;;;;9.60;4.80;;;;;;;3.22;73.13;100491.76;1807153;79;21444;-54
2021/04/24 03:09:32;;;;;;;7.53;4.85;;;;;;;3.23;73.12;100483.89;1806918;79;21024;-54
2021/04/24 03:11:59;;;;;;;11.68;5.12;;;;;;;3.22;73.12;100489.05;1807009;79;21260;-54
2021/04/24 03:14:27;;;;;;;6.03;4.42;;;;;;;3.21;73.12;100493.63;1806986;79;20954;-54
2021/04/24 03:16:56;;;;;;;5.65;4.42;;;;;;;3.21;73.19;100486.02;1806796;79;21025;-54
2021/04/24 03:19:23;;;;;;;6.70;5.37;;;;;;;3.22;73.31;100491.76;1806971;79;21138;-54
2021/04/24 03:21:50;;;;;;;8.38;5.25;;;;;;;3.24;73.34;100491.00;1806974;79;21018;-54
2021/04/24 03:24:18;;;;;;;9.98;5.58;;;;;;;3.25;73.42;100499.45;1807033;79;21018;-54
2021/04/24 03:26:45;;;;;;;9.40;5.35;;;;;;;3.27;73.50;100495.97;1806897;79;20983;-54
2021/04/24 03:29:12;;;;;;;7.65;4.72;;;;;;;3.33;73.42;100499.68;1806835;79;21003;-54
2021/04/24 03:31:40;;;;;;;9.78;5.05;;;;;;;3.39;73.32;100500.98;1806872;79;21146;-54
2021/04/24 03:34:07;;;;;;;9.28;4.87;;;;;;;3.45;73.13;100504.15;1806827;79;21280;-54
2021/04/24 03:36:35;;;;;;;8.20;5.87;;;;;;;3.53;73.15;100513.06;1806968;79;20971;-54
2021/04/24 03:39:04;;;;;;;7.22;5.10;;;;;;;3.60;72.92;100513.31;1807061;79;20970;-54
2021/04/24 03:41:32;;;;;;;8.90;5.20;;;;;;;3.64;72.63;100509.60;1806983;79;21757;-54
2021/04/24 03:43:59;;;;;;;6.67;4.92;;;;;;;3.66;72.59;100514.30;1806999;79;21206;-54
2021/04/24 03:46:27;;;;;;;8.78;5.90;;;;;;;3.73;72.52;100520.48;1806844;79;21022;-54
2021/04/24 03:48:55;;;;;;;7.60;5.15;;;;;;;3.78;72.25;100519.27;1806972;79;20999;-54
2021/04/24 03:51:23;;;;;;;7.30;4.60;;;;;;;3.85;71.99;100523.81;1806950;79;21034;-54
2021/04/24 03:53:51;;;;;;;11.63;6.47;;;;;;;3.91;71.77;100533.77;1807044;79;21045;-54
2021/04/24 03:56:19;;;;;;;7.70;5.50;;;;;;;3.94;71.48;100530.59;1807024;79;21488;-54
2021/04/24 03:58:47;;;;;;;8.30;4.78;;;;;;;3.94;71.26;100538.23;1806828;79;21002;-54
2021/04/24 04:01:15;;;;;;;7.37;4.58;;;;;;;3.95;71.09;100543.13;1807032;79;20979;-54
2021/04/24 04:03:44;;;;;;;8.75;5.33;;;;;;;3.94;71.04;100542.31;1806891;79;21083;-54
2021/04/24 04:06:12;;;;;;;8.38;4.72;;;;;;;3.93;71.03;100538.44;1807032;79;21003;-54
2021/04/24 04:08:41;;;;;;;5.03;4.53;;;;;;;3.96;71.02;100542.09;1807037;79;21202;-54
2021/04/24 04:11:08;;;;;;;9.05;5.10;;;;;;;3.98;70.75;100544.03;1806860;79;21029;-54
2021/04/24 04:13:36;;;;;;;7.17;4.90;;;;;;;4.00;70.67;100540.55;1806929;79;21180;-54
2021/04/24 04:16:04;;;;;;;11.75;4.85;;;;;;;4.02;70.44;100537.63;1806827;79;21049;-54
2021/04/24 04:18:35;;;;;;;7.67;5.25;;;;;;;4.03;70.31;100550.14;1806970;79;21054;-54
2021/04/24 04:21:00;;;;;;;11.43;5.67;;;;;;;4.06;70.13;100549.69;1806758;79;21279;-54
2021/04/24 04:23:28;;;;;;;8.83;5.12;;;;;;;4.12;69.91;100551.52;1806423;79;21044;-54
2021/04/24 04:25:56;;;;;;;12.85;5.67;;;;;;;4.16;69.62;100547.28;1806921;79;21010;-54
2021/04/24 04:28:24;;;;;;;9.43;6.08;;;;;;;4.23;69.73;100549.91;1806722;79;21022;-54
2021/04/24 04:30:54;;;;;;;8.68;5.40;;;;;;;4.30;69.49;100556.09;1807042;79;20939;-54
2021/04/24 04:33:21;;;;;;;9.15;5.50;;;;;;;4.32;69.27;100552.63;1806987;79;21370;-54
2021/04/24 04:35:49;;;;;;;10.55;5.22;;;;;;;4.35;69.20;100553.52;1806788;79;22008;-54
2021/04/24 04:38:16;;;;;;;9.78;4.83;;;;;;;4.36;69.21;100555.70;1806937;79;21023;-54
2021/04/24 04:40:45;;;;;;;6.90;5.28;;;;;;;4.42;69.21;100552.91;1806792;79;21018;-54
2021/04/24 04:43:12;;;;;;;11.97;5.47;;;;;;;4.52;68.88;100558.34;1807002;79;21054;-54
2021/04/24 04:45:40;;;;;;;10.30;5.30;;;;;;;4.58;68.85;100557.41;1806923;79;22161;-54
2021/04/24 04:48:08;;;;;;;7.80;5.10;;;;;;;4.64;68.70;100551.04;1806748;79;20994;-54
2021/04/24 04:50:37;;;;;;;8.18;5.22;;;;;;;4.67;68.40;100547.85;1806730;79;21018;-54
2021/04/24 04:53:05;;;;;;;8.20;5.00;;;;;;;4.71;68.15;100555.86;1809529;79;21022;-54
2021/04/24 04:55:32;;;;;;;14.18;6.72;;;;;;;4.77;68.22;100556.83;1815552;79;21046;-54
2021/04/24 04:58:00;;;;;;;7.60;4.70;;;;;;;4.83;68.01;100555.37;1815377;79;21450;-54
2021/04/24 05:00:27;;;;;;;10.78;5.17;;;;;;;4.88;67.76;100549.23;1815584;79;21939;-54
2021/04/24 05:02:55;;;;;;;8.03;4.85;;;;;;;4.95;67.47;100550.50;1815503;79;20966;-54
2021/04/24 05:05:22;;;;;;;7.37;5.33;;;;;;;4.99;67.78;100541.63;1815324;79;21053;-54
2021/04/24 05:07:50;;;;;;;9.08;5.20;;;;;;;5.13;67.51;100558.59;1815526;79;21013;-54
2021/04/24 05:10:23;;;;;;;8.03;4.72;;;;;;;5.21;67.09;100557.95;1815265;79;22324;-54
2021/04/24 05:12:53;;;;;;;7.15;4.20;;;;;;;5.22;66.75;100559.61;1815380;79;21061;-54
2021/04/24 05:15:21;;;;;;;8.00;4.97;;;;;;;5.16;66.61;100558.66;1815517;79;21049;-54
2021/04/24 05:17:49;;;;;;;7.20;5.00;;;;;;;5.17;66.85;100556.20;1815392;79;21002;-54
2021/04/24 05:20:20;;;;;;;6.97;5.20;;;;;;;5.21;66.86;100541.61;1815561;78;21461;-54
2021/04/24 05:22:48;;;;;;;8.10;4.85;;;;;;;5.27;66.34;100546.11;1815525;79;21134;-54
2021/04/24 05:25:16;;;;;;;7.87;5.30;;;;;;;5.27;66.23;100555.64;1815406;79;21639;-54
2021/04/24 05:27:46;;;;;;;10.63;6.22;;;;;;;5.28;66.10;100556.76;1815359;78;21282;-54
2021/04/24 05:30:16;;;;;;;7.12;5.35;;;;;;;5.35;65.94;100547.12;1815409;79;21029;-54
2021/04/24 05:32:46;;;;;;;8.13;4.78;;;;;;;5.35;65.34;100547.12;1815464;79;21014;-52
2021/04/24 05:35:14;;;;;;;12.93;4.83;;;;;;;5.33;65.70;100546.00;1815412;79;21391;-53
2021/04/24 05:37:42;;;;;;;6.75;4.47;;;;;;;5.43;65.01;100544.06;1815373;78;21022;-53
2021/04/24 05:40:09;;;;;;;8.78;4.45;;;;;;;5.47;64.61;100542.52;1815288;79;20978;-53
2021/04/24 05:42:38;;;;;;;7.75;4.80;;;;;;;5.47;64.39;100545.77;1815387;79;21025;-53
2021/04/24 05:45:11;;;;;;;8.45;4.45;;;;;;;5.42;64.95;100556.02;1815558;79;21169;-53
2021/04/24 05:47:44;;;;;;;7.22;4.33;;;;;;;5.45;65.06;100550.09;1815541;79;21698;-53
2021/04/24 05:50:13;;;;;;;6.90;4.55;;;;;;;5.47;64.32;100555.30;1815491;78;21033;-54
2021/04/24 05:52:41;;;;;;;7.65;4.35;;;;;;;5.47;64.37;100555.30;1815089;79;21045;-53
2021/04/24 05:55:10;;;;;;;7.03;4.35;;;;;;;5.47;64.12;100562.95;1815459;79;21057;-53
2021/04/24 05:57:38;;;;;;;9.98;4.67;;;;;;;5.46;64.06;100568.10;1815288;79;21317;-53
2021/04/24 06:00:16;;;;;;;7.90;5.30;;;;;;;5.43;63.91;100563.13;1815335;79;21151;-53
2021/04/24 06:02:43;;;;;;;6.95;4.72;;;;;;;5.47;64.25;100557.51;1815346;79;21026;-54
2021/04/24 06:05:12;;;;;;;9.15;4.50;;;;;;;5.53;64.00;100558.46;1815367;78;21006;-54
2021/04/24 06:07:39;;;;;;;6.10;4.33;;;;;;;5.64;63.56;100549.97;1815388;79;21045;-54
2021/04/24 06:10:10;;;;;;;8.10;5.30;;;;;;;5.78;63.43;100555.47;1815492;79;21049;-53
2021/04/24 06:12:38;;;;;;;8.35;4.70;;;;;;;5.91;63.36;100550.30;1815330;79;21364;-54
2021/04/24 06:15:08;;;;;;;6.83;4.35;;;;;;;6.07;62.06;100554.76;1815444;79;21013;-54
2021/04/24 06:17:36;;;;;;;8.58;4.62;;;;;;;6.05;62.32;100555.00;1815397;78;21022;-54
2021/04/24 06:20:06;;;;;;;6.42;4.12;;;;;;;6.08;61.40;100553.16;1815325;79;21005;-54
2021/04/24 06:22:34;;;;;;;8.83;3.98;;;;;;;6.00;58.98;100556.23;1815480;79;21604;-54
2021/04/24 06:25:06;;;;;;;6.53;3.98;;;;;;;5.90;58.54;100563.63;1815481;78;21384;-53
2021/04/24 06:27:34;;;;;;;9.33;3.60;;;;;;;5.85;58.40;100558.90;1814948;79;20985;-53
2021/04/24 06:30:06;;;;;;;6.35;3.50;;;;;;;5.95;57.61;100553.39;1815200;79;21015;-53
2021/04/24 06:32:33;;;;;;;9.05;4.30;;;;;;;6.10;57.29;100548.81;1815551;79;21037;-53
2021/04/24 06:35:01;;;;;;;6.22;3.70;;;;;;;6.27;56.25;100546.17;1815589;79;21017;-53
2021/04/24 06:37:28;;;;;;;6.37;3.58;;;;;;;6.40;55.31;100567.70;1815675;79;22064;-53
2021/04/24 06:39:56;;;;;;;6.95;3.77;;;;;;;6.47;52.97;100542.47;1815500;79;20978;-53
2021/04/24 06:42:24;;;;;;;5.90;3.30;;;;;;;6.61;52.15;100551.20;1815501;79;20990;-53
2021/04/24 06:44:52;;;;;;;5.83;3.22;;;;;;;6.76;52.12;100541.13;1815549;79;21033;-53
2021/04/24 06:47:21;;;;;;;7.97;3.50;;;;;;;6.90;50.60;100541.10;1815508;79;21045;-53
2021/04/24 06:49:48;;;;;;;8.15;4.17;;;;;;;7.00;50.69;100546.44;1815505;78;21396;-53
2021/04/24 06:52:16;;;;;;;6.05;3.02;;;;;;;6.98;49.89;100555.42;1815551;78;21667;-53
2021/04/24 06:54:44;;;;;;;5.83;3.42;;;;;;;6.90;49.90;100542.47;1815485;79;21009;-53
2021/04/24 06:57:11;;;;;;;6.35;3.60;;;;;;;6.87;49.90;100555.25;1815537;78;21029;-53
2021/04/24 06:59:40;;;;;;;5.78;3.45;;;;;;;6.77;49.19;100565.96;1815386;79;20986;-53
2021/04/24 07:02:10;;;;;;;4.67;2.83;;;;;;;6.71;49.12;100568.31;1815569;79;22029;-53
2021/04/24 07:04:39;;;;;;;7.42;2.95;;;;;;;6.70;47.16;100574.32;1815411;79;21328;-53
2021/04/24 07:07:07;;;;;;;17.77;4.40;;;;;;;6.80;46.22;100565.50;1815527;78;21065;-54
2021/04/24 07:09:34;;;;;;;9.70;2.95;;;;;;;6.91;46.38;100553.66;1815406;79;21038;-54
2021/04/24 07:12:03;;;;;;;9.65;3.37;;;;;;;6.98;45.66;100559.52;1815410;79;21025;-54
2021/04/24 07:14:30;;;;;;;5.30;2.80;;;;;;;7.02;44.51;100562.06;1815602;79;21489;-54
2021/04/24 07:17:00;;;;;;;3.70;2.60;;;;;;;7.03;43.13;100559.59;1815284;78;21084;-54
2021/04/24 07:19:29;;;;;;;9.05;2.70;;;;;;;6.94;43.27;100572.01;1815425;79;21053;-54
2021/04/24 07:21:56;;;;;;;6.67;2.70;;;;;;;6.91;43.53;100567.31;1815426;79;21033;-54
2021/04/24 07:24:25;;;;;;;5.90;3.05;;;;;;;6.95;43.35;100562.75;1815532;79;21010;-54
2021/04/24 07:26:52;;;;;;;4.12;2.60;;;;;;;7.11;43.04;100563.84;1815374;79;21208;-53
2021/04/24 07:29:20;;;;;;;5.97;2.20;;;;;;;7.28;42.20;100566.04;1815345;79;21130;-53
2021/04/24 07:31:48;;;;;;;4.55;2.40;;;;;;;7.45;42.40;100561.94;1815375;79;21295;-53
2021/04/24 07:34:15;;;;;;;6.60;3.50;;;;;;;7.60;42.16;100557.23;1815331;78;20970;-53
2021/04/24 07:36:44;;;;;;;5.15;2.80;;;;;;;7.72;42.19;100562.63;1815573;79;21071;-53
2021/04/24 07:39:11;;;;;;;6.08;2.50;;;;;;;7.79;42.24;100574.22;1815575;79;21191;-53
2021/04/24 07:41:39;;;;;;;5.85;2.45;;;;;;;7.81;42.73;100578.06;1815447;79;21046;-53
2021/04/24 07:44:06;;;;;;;4.85;2.60;;;;;;;7.81;41.41;100581.61;1815465;78;21002;-53
2021/04/24 07:46:35;;;;;;;6.78;2.90;;;;;;;7.69;40.91;100579.54;1815337;79;20982;-53
2021/04/24 07:49:04;;;;;;;4.95;2.35;;;;;;;7.59;42.45;100578.84;1815535;78;21560;-53
2021/04/24 07:51:31;;;;;;;5.87;2.72;;;;;;;7.68;41.80;100584.71;1815395;79;21187;-53
2021/04/24 07:53:58;;;;;;;7.58;2.27;;;;;;;7.74;40.94;100586.43;1812966;79;21065;-53
2021/04/24 07:56:25;;;;;;;6.22;2.40;;;;;;;7.81;40.30;100589.81;1806668;79;21030;-53
2021/04/24 07:58:53;;;;;;;10.55;3.17;;;;;;;7.78;40.09;100580.75;1806863;79;21050;-53
2021/04/24 08:01:21;;;;;;;4.28;2.75;;;;;;;7.74;40.38;100591.91;1806913;79;21021;-53
2021/04/24 08:03:48;;;;;;;9.00;2.90;;;;;;;7.74;40.66;100583.70;1806906;79;22267;-53
2021/04/24 08:06:16;;;;;;;6.05;2.70;;;;;;;7.90;41.65;100585.59;1806938;79;21050;-54
2021/04/24 08:08:43;;;;;;;4.08;2.60;;;;;;;8.10;40.50;100589.15;1806760;79;21061;-53
2021/04/24 08:11:11;;;;;;;4.12;2.35;;;;;;;8.19;39.98;100595.02;1806770;79;21058;-53
2021/04/24 08:13:39;;;;;;;3.22;1.80;;;;;;;8.26;38.21;100594.83;1806914;79;21009;-54
2021/04/24 08:16:06;;;;;;;3.62;2.02;;;;;;;8.37;38.50;100591.67;1807031;79;22118;-53
2021/04/24 08:18:34;;;;;;;5.08;2.30;;;;;;;8.39;37.26;100579.39;1806608;79;21078;-53
2021/04/24 08:21:01;;;;;;;6.37;2.52;;;;;;;8.30;38.02;100589.11;1806806;79;20986;-54
2021/04/24 08:23:29;;;;;;;4.17;2.42;;;;;;;8.25;38.20;100594.53;1806803;79;21595;-53
2021/04/24 08:25:56;;;;;;;7.00;2.10;;;;;;;8.19;38.52;100599.11;1806248;79;21018;-53
2021/04/24 08:28:23;;;;;;;9.58;2.27;;;;;;;8.15;38.34;100606.72;1806729;79;21187;-53
2021/04/24 08:30:51;;;;;;;4.90;2.62;;;;;;;8.17;38.52;100614.94;1806720;79;21580;-52
2021/04/24 08:33:19;;;;;;;4.58;2.45;;;;;;;8.11;38.32;100608.56;1806845;79;21034;-53
2021/04/24 08:35:47;;;;;;;3.12;2.20;;;;;;;8.07;39.15;100602.49;1806868;79;21033;-53
2021/04/24 08:38:14;;;;;;;5.75;2.00;;;;;;;8.02;39.27;100602.44;1806922;79;21014;-53
2021/04/24 08:40:42;;;;;;;2.75;1.80;;;;;;;8.05;39.26;100608.77;1806707;79;21349;-53
2021/04/24 08:43:09;;;;;;;4.05;2.30;;;;;;;8.03;39.13;100602.70;1806704;79;21065;-53
2021/04/24 08:45:37;;;;;;;2.75;2.15;;;;;;;8.04;39.89;100605.19;1806794;79;21053;-54
2021/04/24 08:48:06;;;;;;;5.75;2.10;;;;;;;8.02;40.50;100596.42;1806852;79;21053;-54
2021/04/24 08:50:35;;;;;;;5.15;2.40;;;;;;;8.03;40.35;100612.28;1806870;79;21037;-54
2021/04/24 08:53:03;;;;;;;3.85;1.77;;;;;;;8.15;40.72;100608.09;1806850;79;22664;-53
2021/04/24 08:55:35;;;;;;;4.70;1.90;;;;;;;8.49;39.36;100606.09;1813516;79;21013;-54
2021/04/24 08:58:05;;;;;;;3.55;2.10;;;;;;;8.63;39.09;100607.36;1815416;79;20978;-54
2021/04/24 09:00:38;;;;;;;5.97;2.15;;;;;;;8.62;39.15;100601.59;1815342;79;21052;-54
2021/04/24 09:03:08;;;;;;;7.28;2.02;;;;;;;8.47;39.81;100610.45;1815487;78;21640;-54
2021/04/24 09:05:36;;;;;;;3.47;2.00;;;;;;;8.31;40.41;100608.56;1815457;79;21197;-55
2021/04/24 09:08:06;;;;;;;4.97;2.08;;;;;;;8.25;39.98;100613.69;1815355;79;21065;-53
2021/04/24 09:10:43;;;;;;;4.62;2.72;;;;;;;8.20;40.18;100609.51;1815357;79;21002;-55
2021/04/24 09:13:14;;;;;;;4.50;1.85;;;;;;;8.40;40.16;100618.52;1815113;79;21045;-54
2021/04/24 09:15:44;;;;;;;8.20;1.92;;;;;;;8.78;40.02;100614.09;1784922;79;21077;-54
2021/04/24 09:18:15;;;;;;;12.33;2.35;;;;;;;9.19;36.96;100614.52;1815514;79;22347;-54
2021/04/24 09:20:52;;;;;;;5.30;2.25;;;;;;;9.30;37.41;100595.72;1815429;79;21061;-54
2021/04/24 09:23:31;;;;;;;2.58;1.80;;;;;;;9.29;37.74;100620.09;1815515;78;21049;-53
2021/04/24 09:26:10;;;;;;;9.10;2.05;;;;;;;9.24;37.50;100611.00;1815337;79;21054;-53
2021/04/24 09:28:42;;;;;;;5.70;1.98;;;;;;;8.88;38.61;100614.20;1815580;79;22223;-53
2021/04/24 09:31:24;;;;;;;3.40;1.82;;;;;;;8.64;39.03;100619.98;1815388;79;21195;-53
2021/04/24 09:33:55;;;;;;;3.75;1.90;;;;;;;8.73;38.90;100622.23;1815363;78;21081;-54
2021/04/24 09:36:24;;;;;;;4.50;2.10;;;;;;;8.97;38.15;100620.89;1815326;79;21041;-53
2021/04/24 09:38:55;;;;;;;7.85;1.87;;;;;;;9.05;37.99;100621.51;1815238;79;21053;-53
2021/04/24 09:41:35;;;;;;;3.85;2.20;;;;;;;9.23;37.30;100617.03;1815300;79;21643;-54
2021/04/24 09:44:08;;;;;;;3.72;2.30;;;;;;;9.44;38.23;100624.88;1815443;78;21702;-53
2021/04/24 09:46:50;;;;;;;5.47;2.27;;;;;;;9.94;37.44;100627.45;1815338;79;21152;-54
2021/04/24 09:49:31;;;;;;;4.35;2.25;;;;;;;10.43;37.14;100634.62;1815361;79;20986;-53
2021/04/24 09:52:02;;;;;;;8.25;2.20;;;;;;;10.74;36.90;100630.64;1815286;78;21002;-53
2021/04/24 09:57:22;;;;;;;4.25;2.10;;;;;;;10.16;38.28;100636.38;1846333;76;23264;-53
2021/04/24 10:00:03;;;;;;;2.92;1.80;;;;;;;9.54;39.57;100640.59;1816143;78;21009;-54
2021/04/24 10:02:41;;;;;;;3.45;1.87;;;;;;;9.44;40.50;100639.95;1846146;76;22765;-53
2021/04/24 10:05:16;;;;;;;9.78;2.37;;;;;;;9.60;39.75;100632.70;1816211;78;20966;-53
2021/04/24 10:07:54;;;;;;;7.53;2.50;;;;;;;9.88;39.45;100626.59;1816220;79;21191;-53
2021/04/24 10:10:33;;;;;;;4.53;2.67;;;;;;;10.27;38.96;100624.89;1813030;77;21661;-54
2021/04/24 10:13:05;;;;;;;4.45;2.05;;;;;;;10.67;37.25;100620.73;1784006;80;20994;-53
2021/04/24 10:15:44;;;;;;;8.60;2.33;;;;;;;10.92;35.05;100623.27;1783827;80;21049;-54
2021/04/24 10:18:14;;;;;;;5.62;3.02;;;;;;;11.01;35.32;100630.44;1783801;80;20946;-54
2021/04/24 10:20:46;;;;;;;6.08;1.80;;;;;;;11.26;35.36;100625.55;1784003;80;21256;-54
2021/04/24 10:23:15;;;;;;;5.95;1.75;;;;;;;11.39;32.57;100623.63;1783895;80;21045;-54
2021/04/24 10:25:44;;;;;;;3.60;2.45;;;;;;;10.94;32.26;100627.13;1783937;80;21591;-54
2021/04/24 10:28:11;;;;;;;3.12;1.60;;;;;;;10.57;32.49;100624.80;1758206;80;21076;-54
2021/04/24 10:30:40;;;;;;;4.12;1.82;;;;;;;10.43;33.14;100634.62;1752802;81;21005;-54
2021/04/24 10:33:07;;;;;;;2.55;1.60;;;;;;;10.19;34.03;100633.66;1753016;81;22269;-53
2021/04/24 10:35:34;;;;;;;6.75;2.30;;;;;;;9.92;34.18;100630.47;1752777;81;21037;-53
2021/04/24 10:38:03;;;;;;;6.00;2.08;;;;;;;9.69;35.87;100635.23;1752866;81;21009;-54
2021/04/24 10:40:30;;;;;;;3.45;2.30;;;;;;;9.64;35.88;100635.18;1752775;81;21053;-54
2021/04/24 10:42:59;;;;;;;6.75;2.35;;;;;;;9.86;36.62;100641.13;1752997;81;21009;-54
2021/04/24 10:45:33;;;;;;;4.00;2.35;;;;;;;10.27;35.87;100641.37;1723570;81;21205;-54
2021/04/24 10:48:02;;;;;;;5.75;1.60;;;;;;;10.75;35.77;100629.55;1752700;81;21037;-54
2021/04/24 10:50:46;;;;;;;3.85;2.27;;;;;;;11.23;34.17;100634.31;1752943;81;21057;-54
2021/04/24 10:53:29;;;;;;;5.37;2.00;;;;;;;11.61;33.62;100625.84;1752905;81;20997;-54
2021/04/24 10:55:59;;;;;;;3.62;1.62;;;;;;;11.83;33.54;100624.16;1752963;81;21021;-54
2021/04/24 10:58:32;;;;;;;6.53;1.95;;;;;;;11.92;32.76;100627.45;1752868;81;21369;-54
2021/04/24 11:01:04;;;;;;;4.15;2.00;;;;;;;11.74;32.07;100623.33;1755304;81;21678;-55
2021/04/24 11:03:48;;;;;;;8.15;1.98;;;;;;;11.23;32.03;100626.06;1764602;81;21678;-54
2021/04/24 11:06:23;;;;;;;3.33;1.92;;;;;;;11.08;31.44;100637.88;1764445;81;20969;-54
2021/04/24 11:09:18;;;;;;;17.40;9.28;;;;;;;11.17;30.70;100638.98;1764649;81;21037;-54
2021/04/24 11:11:49;;;;;;;5.08;2.55;;;;;;;11.31;31.48;100631.03;1727369;81;21215;-54
2021/04/24 11:14:19;;;;;;;2.47;1.65;;;;;;;11.25;31.91;100641.76;1764000;81;21448;-54
2021/04/24 11:16:47;;;;;;;3.33;1.90;;;;;;;11.02;31.43;100632.91;1738661;81;21566;-54
2021/04/24 11:19:43;;;;;;;3.47;1.77;;;;;;;10.81;31.92;100635.33;1738749;81;21017;-53
2021/04/24 11:22:34;;;;;;;3.52;1.82;;;;;;;10.65;31.91;100636.64;1763918;81;21036;-54
2021/04/24 11:25:27;;;;;;;4.97;2.52;;;;;;;10.39;32.37;100638.46;1756267;81;21193;-54
2021/04/24 11:31:02;;;;;;;3.58;1.92;;;;;;;9.83;33.23;100648.49;1846148;76;22737;-54
2021/04/24 11:33:48;;;;;;;3.35;1.90;;;;;;;10.05;33.87;100651.13;1816186;79;21070;-53
2021/04/24 11:36:25;;;;;;;6.35;2.12;;;;;;;10.55;32.46;100644.84;1816195;79;21001;-53
2021/04/24 11:39:04;;;;;;;9.50;2.12;;;;;;;10.93;31.43;100641.42;1816269;79;21021;-54
2021/04/24 11:41:42;;;;;;;3.52;2.00;;;;;;;10.83;31.26;100629.00;1816015;79;21033;-54
2021/04/24 11:44:23;;;;;;;5.10;2.30;;;;;;;10.64;31.15;100654.77;1816302;79;21041;-53
2021/04/24 11:46:56;;;;;;;4.28;2.50;;;;;;;10.61;31.35;100641.02;1816179;78;21006;-54
2021/04/24 11:49:28;;;;;;;4.45;2.20;;;;;;;11.06;31.57;100642.27;1816024;79;21473;-54